createdAt,value
2023-02-23T00:00:49.737Z,10.60
2023-02-23T00:03:16.382Z,10.50
2023-02-23T00:05:43.214Z,10.50
2023-02-23T00:08:10.923Z,10.50
2023-02-23T00:10:37.577Z,10.50
2023-02-23T00:13:04.971Z,10.60
2023-02-23T00:15:31.636Z,10.50
2023-02-23T00:17:58.385Z,10.50
2023-02-23T00:20:27.484Z,10.50
2023-02-23T00:22:56.120Z,10.40
2023-02-23T00:25:24.843Z,10.50
2023-02-23T00:27:52.408Z,10.40
2023-02-23T00:30:20.287Z,10.50
2023-02-23T00:32:50.564Z,10.40
2023-02-23T00:35:18.990Z,10.40
2023-02-23T00:37:49.102Z,10.40
2023-02-23T00:40:17.159Z,10.30
2023-02-23T00:42:45.190Z,10.40
2023-02-23T00:45:15.664Z,10.40
2023-02-23T00:47:43.868Z,10.40
2023-02-23T00:50:18.057Z,10.40
2023-02-23T00:52:46.254Z,10.40
2023-02-23T00:55:14.862Z,10.40
2023-02-23T00:57:41.982Z,10.40
2023-02-23T01:00:20.719Z,10.40
2023-02-23T01:02:48.669Z,10.40
2023-02-23T01:05:16.613Z,10.40
2023-02-23T01:07:46.385Z,10.30
2023-02-23T01:10:19.296Z,10.30
2023-02-23T01:12:49.825Z,10.30
2023-02-23T01:15:18.521Z,10.30
2023-02-23T01:17:46.358Z,10.40
2023-02-23T01:20:22.374Z,10.40
2023-02-23T01:22:51.671Z,10.40
2023-02-23T01:25:19.082Z,10.40
2023-02-23T01:27:46.047Z,10.50
2023-02-23T01:30:15.058Z,10.40
2023-02-23T01:32:43.223Z,10.40
2023-02-23T01:35:12.441Z,10.40
2023-02-23T01:37:41.800Z,10.40
2023-02-23T01:40:28.711Z,10.30
2023-02-23T01:43:17.039Z,10.30
2023-02-23T01:45:45.844Z,10.30
2023-02-23T01:48:20.324Z,10.20
2023-02-23T01:50:48.722Z,10.20
2023-02-23T01:53:17.176Z,10.20
2023-02-23T01:55:44.672Z,10.30
2023-02-23T01:58:15.588Z,10.30
2023-02-23T02:00:51.668Z,10.30
2023-02-23T02:03:29.240Z,10.30
2023-02-23T02:05:56.775Z,10.30
2023-02-23T02:08:26.834Z,10.40
2023-02-23T02:10:57.739Z,10.40
2023-02-23T02:13:30.830Z,10.40
2023-02-23T02:16:15.069Z,10.30
2023-02-23T02:18:56.243Z,10.20
2023-02-23T02:21:51.696Z,10.20
2023-02-23T02:24:49.467Z,10.20
2023-02-23T02:27:43.581Z,10.20
2023-02-23T02:30:13.890Z,10.20
2023-02-23T02:33:02.596Z,10.20
2023-02-23T02:35:50.006Z,10.30
2023-02-23T02:38:28.678Z,10.30
2023-02-23T02:41:13.000Z,10.30
2023-02-23T02:43:59.228Z,10.20
2023-02-23T02:46:37.468Z,10.20
2023-02-23T02:49:27.322Z,10.20
2023-02-23T02:52:19.736Z,10.20
2023-02-23T02:54:59.265Z,10.30
2023-02-23T02:57:28.669Z,10.30
2023-02-23T03:00:16.803Z,10.30
2023-02-23T03:03:02.126Z,10.30
2023-02-23T03:06:08.734Z,10.30
2023-02-23T03:08:58.002Z,10.30
2023-02-23T03:11:54.504Z,10.30
2023-02-23T03:15:09.113Z,10.20
2023-02-23T03:18:06.148Z,10.20
2023-02-23T03:20:51.339Z,10.20
2023-02-23T03:23:48.888Z,10.20
2023-02-23T03:26:47.683Z,10.20
2023-02-23T03:30:12.987Z,10.20
2023-02-23T03:33:09.027Z,10.20
2023-02-23T03:36:00.682Z,10.20
2023-02-23T03:38:58.427Z,10.20
2023-02-23T03:41:46.674Z,10.20
2023-02-23T03:44:56.204Z,10.20
2023-02-23T03:47:46.424Z,10.30
2023-02-23T03:50:45.681Z,10.20
2023-02-23T03:53:35.477Z,10.30
2023-02-23T03:56:21.587Z,10.20
2023-02-23T03:59:13.881Z,10.20
2023-02-23T04:02:00.070Z,10.20
2023-02-23T04:04:47.190Z,10.20
2023-02-23T04:07:37.232Z,10.20
2023-02-23T04:10:24.201Z,10.20
2023-02-23T04:13:25.819Z,10.20
2023-02-23T04:16:05.567Z,10.20
2023-02-23T04:18:37.773Z,10.20
2023-02-23T04:21:06.165Z,10.20
2023-02-23T04:23:33.030Z,10.20
2023-02-23T04:25:59.745Z,10.20
2023-02-23T04:28:27.824Z,10.20
2023-02-23T04:30:54.596Z,10.20
2023-02-23T04:33:22.342Z,10.20
2023-02-23T04:35:49.405Z,10.20
2023-02-23T04:38:16.096Z,10.20
2023-02-23T04:40:42.863Z,10.10
2023-02-23T04:43:12.933Z,10.10
2023-02-23T04:45:39.783Z,10.20
2023-02-23T04:48:07.335Z,10.20
2023-02-23T04:50:34.426Z,10.20
2023-02-23T04:53:01.146Z,10.10
2023-02-23T04:55:27.933Z,10.10
2023-02-23T04:58:00.029Z,10.10
2023-02-23T05:00:27.448Z,10.10
2023-02-23T05:02:54.147Z,10.10
2023-02-23T05:05:21.413Z,10.10
2023-02-23T05:07:48.219Z,10.10
2023-02-23T05:10:14.874Z,10.10
2023-02-23T05:12:41.595Z,10.10
2023-02-23T05:15:10.969Z,10.10
2023-02-23T05:17:42.008Z,10.10
2023-02-23T05:20:13.286Z,10.10
2023-02-23T05:22:40.096Z,10.10
2023-02-23T05:25:09.464Z,10.10
2023-02-23T05:27:36.844Z,10.10
2023-02-23T05:30:04.841Z,10.10
2023-02-23T05:32:31.525Z,10.00
2023-02-23T05:34:58.188Z,10.00
2023-02-23T05:37:24.872Z,10.00
2023-02-23T05:39:51.821Z,10.00
2023-02-23T05:42:18.547Z,10.10
2023-02-23T05:44:45.225Z,10.10
2023-02-23T05:47:11.929Z,10.10
2023-02-23T05:49:38.625Z,10.10
2023-02-23T05:52:05.698Z,10.10
2023-02-23T05:54:32.406Z,10.10
2023-02-23T05:57:01.672Z,10.00
2023-02-23T05:59:28.563Z,10.00
2023-02-23T06:01:55.310Z,9.90
2023-02-23T06:04:23.210Z,9.90
2023-02-23T06:06:50.317Z,9.80
2023-02-23T06:09:17.088Z,9.70
2023-02-23T06:11:44.518Z,9.70
2023-02-23T06:14:11.434Z,9.70
2023-02-23T06:16:38.758Z,9.70
2023-02-23T06:19:05.571Z,9.70
2023-02-23T06:21:32.558Z,9.80
2023-02-23T06:24:00.647Z,9.80
2023-02-23T06:26:27.918Z,9.80
2023-02-23T06:28:55.199Z,9.90
2023-02-23T06:31:22.053Z,9.90
2023-02-23T06:33:48.874Z,9.90
2023-02-23T06:36:15.692Z,9.90
2023-02-23T06:38:42.345Z,10.00
2023-02-23T06:41:10.665Z,9.90
2023-02-23T06:43:37.310Z,9.90
2023-02-23T06:46:04.704Z,10.00
2023-02-23T06:48:31.633Z,10.00
2023-02-23T06:51:00.092Z,10.00
2023-02-23T06:53:27.081Z,10.10
2023-02-23T06:55:53.734Z,10.10
2023-02-23T06:58:20.443Z,10.10
2023-02-23T07:00:47.222Z,10.10
2023-02-23T07:03:13.961Z,10.20
2023-02-23T07:05:40.934Z,10.20
2023-02-23T07:08:07.651Z,10.30
2023-02-23T07:10:34.979Z,10.30
2023-02-23T07:13:01.810Z,10.30
2023-02-23T07:15:28.513Z,10.30
2023-02-23T07:17:55.366Z,10.30
2023-02-23T07:20:22.139Z,10.40
2023-02-23T07:22:48.806Z,10.40
2023-02-23T07:25:15.544Z,10.30
2023-02-23T07:27:42.324Z,10.30
2023-02-23T07:30:09.901Z,10.30
2023-02-23T07:32:36.707Z,10.30
2023-02-23T07:35:04.654Z,10.30
2023-02-23T07:37:31.324Z,10.30
2023-02-23T07:40:00.733Z,10.30
2023-02-23T07:42:27.806Z,10.30
2023-02-23T07:44:54.560Z,10.30
2023-02-23T07:47:22.649Z,10.40
2023-02-23T07:49:49.316Z,10.40
2023-02-23T07:52:18.651Z,10.40
2023-02-23T07:54:45.450Z,10.40
2023-02-23T07:57:12.789Z,10.50
2023-02-23T07:59:39.440Z,10.50
2023-02-23T08:02:06.945Z,10.60
2023-02-23T08:04:33.791Z,10.60
2023-02-23T08:07:00.517Z,10.70
2023-02-23T08:09:27.143Z,10.70
2023-02-23T08:11:53.811Z,10.70
2023-02-23T08:14:23.492Z,10.80
2023-02-23T08:16:51.615Z,10.80
2023-02-23T08:19:18.818Z,10.80
2023-02-23T08:21:45.654Z,10.90
2023-02-23T08:24:12.296Z,10.90
2023-02-23T08:26:39.977Z,10.90
2023-02-23T08:29:07.021Z,11.00
2023-02-23T08:31:34.308Z,10.80
2023-02-23T08:34:01.670Z,10.80
2023-02-23T08:36:28.420Z,10.80
2023-02-23T08:38:55.458Z,10.80
2023-02-23T08:41:22.467Z,10.80
2023-02-23T08:43:49.534Z,10.80
2023-02-23T08:46:18.730Z,10.90
2023-02-23T08:48:46.682Z,10.90
2023-02-23T08:51:14.643Z,10.90
2023-02-23T08:53:41.374Z,10.90
2023-02-23T08:56:08.954Z,11.00
2023-02-23T08:58:36.904Z,11.00
2023-02-23T09:01:04.092Z,10.90
2023-02-23T09:03:32.883Z,11.20
2023-02-23T09:06:07.577Z,11.40
2023-02-23T09:08:34.405Z,11.50
2023-02-23T09:11:01.155Z,11.50
2023-02-23T09:13:27.906Z,11.40
2023-02-23T09:15:55.066Z,11.40
2023-02-23T09:18:23.943Z,11.40
2023-02-23T09:20:51.375Z,11.50
2023-02-23T09:23:18.180Z,11.50
2023-02-23T09:25:45.465Z,11.40
2023-02-23T09:28:17.815Z,11.50
2023-02-23T09:30:45.569Z,11.40
2023-02-23T09:33:13.277Z,11.30
2023-02-23T09:35:41.361Z,11.50
2023-02-23T09:38:08.469Z,11.50
2023-02-23T09:40:55.446Z,11.40
2023-02-23T09:43:28.037Z,11.50
2023-02-23T09:46:12.118Z,11.50
2023-02-23T09:48:40.177Z,11.50
2023-02-23T09:51:09.202Z,11.60
2023-02-23T09:53:48.002Z,11.50
2023-02-23T09:56:38.238Z,11.50
2023-02-23T09:59:08.640Z,11.80
2023-02-23T10:02:02.085Z,12.00
2023-02-23T10:04:47.982Z,12.20
2023-02-23T10:07:55.947Z,12.30
2023-02-23T10:10:43.976Z,12.50
2023-02-23T10:13:31.791Z,12.50
2023-02-23T10:16:23.991Z,12.40
2023-02-23T10:18:50.609Z,12.50
2023-02-23T10:21:44.807Z,12.50
2023-02-23T10:24:17.761Z,12.50
2023-02-23T10:26:50.552Z,12.60
2023-02-23T10:29:32.425Z,12.70
2023-02-23T10:32:27.481Z,12.90
2023-02-23T10:34:56.772Z,13.00
2023-02-23T10:37:25.793Z,13.10
2023-02-23T10:39:53.212Z,13.10
2023-02-23T10:42:28.921Z,13.20
2023-02-23T10:44:56.788Z,13.30
2023-02-23T10:47:28.646Z,13.20
2023-02-23T10:49:57.027Z,13.20
2023-02-23T10:52:52.278Z,13.20
2023-02-23T10:55:26.782Z,13.30
2023-02-23T10:58:18.842Z,13.30
2023-02-23T11:00:53.150Z,13.30
2023-02-23T11:03:42.883Z,13.30
2023-02-23T11:06:31.038Z,13.40
2023-02-23T11:08:58.096Z,13.50
2023-02-23T11:11:28.707Z,13.30
2023-02-23T11:13:57.208Z,13.50
2023-02-23T11:16:30.462Z,13.60
2023-02-23T11:19:02.607Z,13.70
2023-02-23T11:21:38.849Z,13.50
2023-02-23T11:24:25.932Z,13.20
2023-02-23T11:27:00.254Z,13.20
2023-02-23T11:29:37.811Z,12.90
2023-02-23T11:32:23.976Z,13.20
2023-02-23T11:35:26.950Z,13.40
2023-02-23T11:37:54.307Z,13.60
2023-02-23T11:40:22.901Z,13.70
2023-02-23T11:43:07.252Z,13.50
2023-02-23T11:46:01.799Z,13.40
2023-02-23T11:48:34.684Z,13.30
2023-02-23T11:51:02.167Z,13.40
2023-02-23T11:53:34.933Z,13.60
2023-02-23T11:56:08.040Z,13.80
2023-02-23T11:58:50.418Z,14.00
2023-02-23T12:01:23.575Z,14.00
2023-02-23T12:03:55.859Z,14.10
2023-02-23T12:06:35.568Z,13.90
2023-02-23T12:09:32.640Z,13.90
2023-02-23T12:12:14.037Z,13.90
2023-02-23T12:14:56.829Z,13.80
2023-02-23T12:17:55.300Z,13.70
2023-02-23T12:20:27.676Z,13.80
2023-02-23T12:23:10.201Z,13.80
2023-02-23T12:26:03.240Z,13.80
2023-02-23T12:28:45.044Z,13.80
2023-02-23T12:31:28.288Z,13.90
2023-02-23T12:34:04.957Z,14.00
2023-02-23T12:36:55.740Z,14.20
2023-02-23T12:39:34.820Z,14.40
2023-02-23T12:42:07.289Z,14.50
2023-02-23T12:45:02.805Z,14.50
2023-02-23T12:47:35.328Z,14.60
2023-02-23T12:50:23.087Z,14.50
2023-02-23T12:52:54.152Z,14.00
2023-02-23T12:55:47.093Z,14.10
2023-02-23T12:58:50.497Z,14.30
2023-02-23T13:01:31.699Z,14.30
2023-02-23T13:04:04.125Z,14.30
2023-02-23T13:06:52.880Z,14.40
2023-02-23T13:09:22.314Z,14.30
2023-02-23T13:12:36.219Z,14.30
2023-02-23T13:15:13.694Z,14.00
2023-02-23T13:17:55.990Z,13.80
2023-02-23T13:20:43.712Z,14.00
2023-02-23T13:23:25.171Z,14.00
2023-02-23T13:26:15.837Z,14.10
2023-02-23T13:28:50.669Z,14.00
2023-02-23T13:31:27.020Z,14.00
2023-02-23T13:33:56.665Z,14.00
2023-02-23T13:36:24.984Z,14.10
2023-02-23T13:39:32.618Z,13.90
2023-02-23T13:42:10.345Z,13.90
2023-02-23T13:44:50.532Z,13.60
2023-02-23T13:47:45.477Z,13.70
2023-02-23T13:50:30.219Z,13.70
2023-02-23T13:53:04.849Z,13.60
2023-02-23T13:55:49.753Z,13.70
2023-02-23T13:58:22.381Z,13.60
2023-02-23T14:01:30.575Z,13.60
2023-02-23T14:04:00.645Z,13.80
2023-02-23T14:06:30.099Z,13.80
2023-02-23T14:09:11.730Z,13.70
2023-02-23T14:11:56.715Z,13.70
2023-02-23T14:14:35.940Z,13.70
2023-02-23T14:17:14.646Z,13.60
2023-02-23T14:20:01.703Z,13.60
2023-02-23T14:22:28.629Z,13.60
2023-02-23T14:25:32.324Z,13.60
2023-02-23T14:28:23.227Z,13.50
2023-02-23T14:31:13.399Z,13.60
2023-02-23T14:33:43.045Z,13.70
2023-02-23T14:36:22.190Z,13.60
2023-02-23T14:39:00.225Z,13.60
2023-02-23T14:41:46.329Z,13.50
2023-02-23T14:44:30.105Z,13.50
2023-02-23T14:47:07.167Z,13.30
2023-02-23T14:49:38.891Z,13.30
2023-02-23T14:52:09.444Z,13.30
2023-02-23T14:54:38.618Z,13.20
2023-02-23T14:57:23.695Z,13.10
2023-02-23T15:00:01.667Z,13.10
2023-02-23T15:02:30.079Z,13.00
2023-02-23T15:04:56.810Z,12.90
2023-02-23T15:07:39.572Z,12.90
2023-02-23T15:10:11.611Z,12.90
2023-02-23T15:12:39.228Z,12.80
2023-02-23T15:15:17.698Z,12.80
2023-02-23T15:17:48.106Z,12.70
2023-02-23T15:20:18.388Z,12.80
2023-02-23T15:22:48.673Z,12.80
2023-02-23T15:25:16.963Z,12.90
2023-02-23T15:27:45.318Z,12.90
2023-02-23T15:30:18.259Z,12.80
2023-02-23T15:32:45.113Z,12.80
2023-02-23T15:35:13.087Z,12.70
2023-02-23T15:40:24.308Z,12.50
2023-02-23T15:43:01.187Z,12.40
2023-02-23T15:45:46.549Z,12.40
2023-02-23T15:48:20.855Z,12.50
2023-02-23T15:50:57.298Z,12.40
2023-02-23T15:53:30.011Z,12.50
2023-02-23T15:56:03.083Z,12.40
2023-02-23T15:58:44.526Z,12.30
2023-02-23T16:01:26.798Z,12.30
2023-02-23T16:03:58.022Z,12.20
2023-02-23T16:06:26.025Z,12.30
2023-02-23T16:09:24.034Z,12.20
2023-02-23T16:12:08.352Z,12.20
2023-02-23T16:14:55.386Z,12.10
2023-02-23T16:17:27.088Z,12.20
2023-02-23T16:20:28.928Z,12.20
2023-02-23T16:22:58.051Z,12.10
2023-02-23T16:25:27.442Z,11.90
2023-02-23T16:28:02.849Z,11.90
2023-02-23T16:30:32.317Z,11.90
2023-02-23T16:33:29.919Z,11.90
2023-02-23T16:36:08.468Z,11.90
2023-02-23T16:38:38.159Z,12.00
2023-02-23T16:41:20.597Z,12.00
2023-02-23T16:43:49.450Z,12.00
2023-02-23T16:46:17.471Z,12.00
2023-02-23T16:48:44.444Z,12.00
2023-02-23T16:51:16.550Z,12.00
2023-02-23T16:53:44.294Z,12.00
2023-02-23T16:56:22.078Z,12.00
2023-02-23T16:58:58.179Z,12.00
2023-02-23T17:01:25.025Z,12.00
2023-02-23T17:03:53.925Z,12.00
2023-02-23T17:06:22.104Z,12.00
2023-02-23T17:08:57.597Z,12.00
2023-02-23T17:11:25.206Z,11.90
2023-02-23T17:13:51.874Z,11.90
2023-02-23T17:16:19.019Z,11.90
2023-02-23T17:18:46.009Z,11.90
2023-02-23T17:21:14.325Z,11.80
2023-02-23T17:23:48.126Z,11.80
2023-02-23T17:26:15.233Z,11.70
2023-02-23T17:28:42.220Z,11.70
2023-02-23T17:31:09.455Z,11.70
2023-02-23T17:33:38.916Z,11.70
2023-02-23T17:36:09.080Z,11.80
2023-02-23T17:38:35.888Z,11.70
2023-02-23T17:41:05.800Z,11.60
2023-02-23T17:43:32.531Z,11.60
2023-02-23T17:45:59.191Z,11.60
2023-02-23T17:48:27.316Z,11.60
2023-02-23T17:50:59.069Z,11.50
2023-02-23T17:53:25.910Z,11.50
2023-02-23T17:55:53.386Z,11.40
2023-02-23T17:58:21.119Z,11.40
2023-02-23T18:00:48.759Z,11.30
2023-02-23T18:03:16.005Z,11.30
2023-02-23T18:05:42.690Z,11.30
2023-02-23T18:08:09.403Z,11.20
2023-02-23T18:10:37.602Z,11.20
2023-02-23T18:13:05.217Z,11.20
2023-02-23T18:15:35.215Z,11.10
2023-02-23T18:18:01.970Z,11.10
2023-02-23T18:20:30.168Z,11.10
2023-02-23T18:22:56.864Z,11.00
2023-02-23T18:25:27.634Z,11.00
2023-02-23T18:27:55.330Z,11.00
2023-02-23T18:30:26.988Z,10.90
2023-02-23T18:33:00.626Z,11.00
2023-02-23T18:35:27.440Z,10.90
2023-02-23T18:37:54.162Z,10.80
2023-02-23T18:40:24.737Z,10.80
2023-02-23T18:42:51.466Z,10.80
2023-02-23T18:45:18.128Z,10.80
2023-02-23T18:47:44.728Z,10.80
2023-02-23T18:50:12.678Z,10.80
2023-02-23T18:52:40.716Z,10.70
2023-02-23T18:55:08.569Z,10.70
2023-02-23T18:57:35.238Z,10.60
2023-02-23T19:00:02.435Z,10.50
2023-02-23T19:02:29.414Z,10.40
2023-02-23T19:05:02.636Z,10.40
2023-02-23T19:07:32.965Z,10.40
2023-02-23T19:10:01.944Z,10.40
2023-02-23T19:12:29.593Z,10.30
2023-02-23T19:14:57.557Z,10.30
2023-02-23T19:17:25.981Z,10.20
2023-02-23T19:19:56.041Z,10.30
2023-02-23T19:22:23.410Z,10.40
2023-02-23T19:24:50.185Z,10.50
2023-02-23T19:27:17.919Z,10.50
2023-02-23T19:29:45.444Z,10.40
2023-02-23T19:32:18.566Z,10.40
2023-02-23T19:34:48.580Z,10.50
2023-02-23T19:37:15.274Z,10.50
2023-02-23T19:39:42.098Z,10.40
2023-02-23T19:42:09.113Z,10.30
2023-02-23T19:44:35.950Z,10.30
2023-02-23T19:47:02.632Z,10.30
2023-02-23T19:49:29.419Z,10.30
2023-02-23T19:51:57.698Z,10.40
2023-02-23T19:54:26.014Z,10.40
2023-02-23T19:56:53.036Z,10.20
2023-02-23T19:59:19.913Z,10.10
2023-02-23T20:01:46.580Z,10.10
2023-02-23T20:04:13.340Z,10.20
2023-02-23T20:06:47.143Z,10.20
2023-02-23T20:09:14.392Z,10.30
2023-02-23T20:11:42.503Z,10.20
2023-02-23T20:14:09.936Z,10.30
2023-02-23T20:16:36.903Z,10.30
2023-02-23T20:19:06.344Z,10.30
2023-02-23T20:21:33.549Z,10.20
2023-02-23T20:24:05.516Z,10.30
2023-02-23T20:26:35.442Z,10.30
2023-02-23T20:29:06.687Z,10.20
2023-02-23T20:31:35.370Z,10.30
2023-02-23T20:34:05.311Z,10.30
2023-02-23T20:36:32.342Z,10.30
2023-02-23T20:38:59.066Z,10.20
2023-02-23T20:41:28.007Z,10.10
2023-02-23T20:43:56.054Z,10.10
2023-02-23T20:46:23.185Z,10.20
2023-02-23T20:48:49.900Z,10.20
2023-02-23T20:51:19.097Z,10.10
2023-02-23T20:53:46.976Z,10.20
2023-02-23T20:56:16.566Z,10.20
2023-02-23T20:58:43.792Z,10.20
2023-02-23T21:01:22.745Z,10.20
2023-02-23T21:03:51.345Z,10.30
2023-02-23T21:06:22.884Z,10.20
2023-02-23T21:08:50.216Z,10.20
2023-02-23T21:11:19.773Z,10.20
2023-02-23T21:13:46.919Z,10.20
2023-02-23T21:16:16.716Z,10.20
2023-02-23T21:18:43.679Z,10.10
2023-02-23T21:21:11.026Z,10.10
2023-02-23T21:23:39.172Z,10.10
2023-02-23T21:26:15.953Z,10.10
2023-02-23T21:28:44.726Z,10.00
2023-02-23T21:31:12.810Z,9.80
2023-02-23T21:33:41.353Z,9.70
2023-02-23T21:36:12.605Z,9.80
2023-02-23T21:38:44.167Z,9.80
2023-02-23T21:41:12.761Z,9.70
2023-02-23T21:43:42.664Z,9.50
2023-02-23T21:46:14.667Z,9.50
2023-02-23T21:48:42.841Z,9.50
2023-02-23T21:51:13.088Z,9.50
2023-02-23T21:53:40.098Z,9.50
2023-02-23T21:56:07.678Z,9.50
2023-02-23T21:58:34.389Z,9.50
2023-02-23T22:01:01.030Z,9.60
2023-02-23T22:03:29.298Z,9.70
2023-02-23T22:05:55.990Z,9.70
2023-02-23T22:08:22.678Z,9.80
2023-02-23T22:10:49.393Z,9.80
2023-02-23T22:13:16.110Z,9.70
2023-02-23T22:15:42.864Z,9.70
2023-02-23T22:18:09.585Z,9.80
2023-02-23T22:20:36.211Z,9.80
2023-02-23T22:23:03.137Z,9.80
2023-02-23T22:25:29.916Z,9.80
2023-02-23T22:27:56.558Z,9.80
2023-02-23T22:30:23.341Z,9.80
2023-02-23T22:32:50.282Z,9.80
2023-02-23T22:35:17.265Z,9.60
2023-02-23T22:37:43.939Z,9.40
2023-02-23T22:40:16.353Z,9.10
2023-02-23T22:42:48.319Z,9.00
2023-02-23T22:45:16.171Z,8.80
2023-02-23T22:47:43.085Z,8.80
2023-02-23T22:50:12.027Z,8.80
2023-02-23T22:52:38.859Z,8.90
2023-02-23T22:55:05.873Z,8.90
2023-02-23T22:57:32.558Z,8.90
2023-02-23T23:00:07.291Z,9.00
2023-02-23T23:02:36.009Z,9.10
2023-02-23T23:05:02.683Z,9.10
2023-02-23T23:07:31.042Z,9.20
2023-02-23T23:09:58.332Z,9.20
2023-02-23T23:12:27.801Z,9.20
2023-02-23T23:14:55.963Z,9.20
2023-02-23T23:17:23.196Z,9.20
2023-02-23T23:19:49.954Z,9.20
2023-02-23T23:22:17.359Z,9.20
2023-02-23T23:24:46.000Z,9.30
2023-02-23T23:27:14.570Z,9.30
2023-02-23T23:29:46.368Z,9.10
2023-02-23T23:32:17.231Z,9.10
2023-02-23T23:34:48.725Z,9.10
2023-02-23T23:37:19.558Z,9.00
2023-02-23T23:39:46.285Z,9.00
2023-02-23T23:42:13.103Z,9.10
2023-02-23T23:44:39.798Z,9.10
2023-02-23T23:47:06.751Z,9.10
2023-02-23T23:49:38.397Z,9.10
2023-02-23T23:52:06.097Z,9.10
2023-02-23T23:54:39.143Z,8.90
2023-02-23T23:57:07.160Z,9.00
2023-02-23T23:59:35.453Z,9.00
